Terminal Aerodrome Forecast
Issued by NWS

Home | Current Version | Previous Version | Text Only | Print | Product List | Glossary On
Versions: 1 2 3 4 5 6 7 8 9 10 11 12
334
FTUS46 KMTR 231728
TAFSJC
TAF
KSJC 231728Z 2318/2418 30005KT P6SM SKC
     FM232000 31012KT P6SM SKC
     FM240400 31006KT P6SM SKC
     FM241100 VRB03KT P6SM FEW012
      TEMPO 2412/2416 BKN012=

USA.gov is the U.S. government's official web portal to all federal, state and local government web resources and services.